createdAt,value
2023-04-15T00:02:19.096Z,6.79
2023-04-15T00:04:48.308Z,6.74
2023-04-15T00:07:16.005Z,6.88
2023-04-15T00:09:43.660Z,6.96
2023-04-15T00:12:12.020Z,6.86
2023-04-15T00:14:39.707Z,7.01
2023-04-15T00:17:07.285Z,6.95
2023-04-15T00:19:35.336Z,6.78
2023-04-15T00:22:03.131Z,6.87
2023-04-15T00:24:30.782Z,6.91
2023-04-15T00:26:58.730Z,6.77
2023-04-15T00:29:26.440Z,6.89
2023-04-15T00:31:54.317Z,6.96
2023-04-15T00:34:22.275Z,6.91
2023-04-15T00:36:50.731Z,6.92
2023-04-15T00:39:18.398Z,6.99
2023-04-15T00:41:46.875Z,7.04
2023-04-15T00:44:14.505Z,7.01
2023-04-15T00:46:43.090Z,6.88
2023-04-15T00:49:12.212Z,7.05
2023-04-15T00:51:39.813Z,6.95
2023-04-15T00:54:08.261Z,6.98
2023-04-15T00:56:37.354Z,6.81
2023-04-15T00:59:06.129Z,6.98
2023-04-15T01:01:35.637Z,6.96
2023-04-15T01:04:04.286Z,6.99
2023-04-15T01:06:33.027Z,7.12
2023-04-15T01:09:01.059Z,7.18
2023-04-15T01:11:29.353Z,7.06
2023-04-15T01:13:58.820Z,6.91
2023-04-15T01:16:26.597Z,6.99
2023-04-15T01:18:55.059Z,7.03
2023-04-15T01:21:23.944Z,7.04
2023-04-15T01:23:53.418Z,7.05
2023-04-15T01:26:21.887Z,6.91
2023-04-15T01:28:49.522Z,6.99
2023-04-15T01:31:17.186Z,6.93
2023-04-15T01:33:46.423Z,6.97
2023-04-15T01:36:15.506Z,6.93
2023-04-15T01:38:43.269Z,6.75
2023-04-15T01:41:11.351Z,6.83
2023-04-15T01:43:39.232Z,6.98
2023-04-15T01:46:06.793Z,6.81
2023-04-15T01:48:34.750Z,7.01
2023-04-15T01:51:04.287Z,7.23
2023-04-15T01:53:31.920Z,7.04
2023-04-15T01:56:00.108Z,6.99
2023-04-15T01:58:27.701Z,7.33
2023-04-15T02:00:55.336Z,7.31
2023-04-15T02:03:25.173Z,7.09
2023-04-15T02:05:53.781Z,7.22
2023-04-15T02:08:21.986Z,7.25
2023-04-15T02:10:50.079Z,7.26
2023-04-15T02:13:18.279Z,7.31
2023-04-15T02:15:49.710Z,7.44
2023-04-15T02:18:19.668Z,7.29
2023-04-15T02:20:47.607Z,7.31
2023-04-15T02:23:15.790Z,7.53
2023-04-15T02:25:53.423Z,7.53
2023-04-15T02:28:22.332Z,7.64
2023-04-15T02:30:49.991Z,7.51
2023-04-15T02:33:17.582Z,7.60
2023-04-15T02:35:45.504Z,7.52
2023-04-15T02:38:13.455Z,7.38
2023-04-15T02:40:41.190Z,7.48
2023-04-15T02:43:09.042Z,7.55
2023-04-15T02:45:36.810Z,7.49
2023-04-15T02:48:05.335Z,7.77
2023-04-15T02:50:33.462Z,7.39
2023-04-15T02:53:01.880Z,7.42
2023-04-15T02:55:29.669Z,7.65
2023-04-15T02:57:57.684Z,7.78
2023-04-15T03:00:25.392Z,7.66
2023-04-15T03:02:58.743Z,7.83
2023-04-15T03:05:27.037Z,7.83
2023-04-15T03:07:54.992Z,7.53
2023-04-15T03:10:22.694Z,7.78
2023-04-15T03:12:50.624Z,7.60
2023-04-15T03:15:18.478Z,7.69
2023-04-15T03:17:46.393Z,7.62
2023-04-15T03:20:14.473Z,7.84
2023-04-15T03:22:42.256Z,7.81
2023-04-15T03:25:10.170Z,7.88
2023-04-15T03:27:38.611Z,7.91
2023-04-15T03:30:07.232Z,7.97
2023-04-15T03:32:36.167Z,7.77
2023-04-15T03:35:04.416Z,7.63
2023-04-15T03:37:32.115Z,7.71
2023-04-15T03:39:59.725Z,7.89
2023-04-15T03:42:27.621Z,7.85
2023-04-15T03:44:55.249Z,7.86
2023-04-15T03:47:23.069Z,7.90
2023-04-15T03:49:51.068Z,7.82
2023-04-15T03:52:18.670Z,7.85
2023-04-15T03:54:46.320Z,7.85
2023-04-15T03:57:14.278Z,7.78
2023-04-15T03:59:42.077Z,7.75
2023-04-15T04:02:09.881Z,7.82
2023-04-15T04:04:37.929Z,7.95
2023-04-15T04:07:05.627Z,7.90
2023-04-15T04:09:33.310Z,8.04
2023-04-15T04:12:01.225Z,7.99
2023-04-15T04:14:37.621Z,8.16
2023-04-15T04:17:05.648Z,7.98
2023-04-15T04:19:33.309Z,8.06
2023-04-15T04:22:01.370Z,7.94
2023-04-15T04:24:29.217Z,7.94
2023-04-15T04:26:56.756Z,7.86
2023-04-15T04:29:24.456Z,7.77
2023-04-15T04:31:52.578Z,7.86
2023-04-15T04:34:20.343Z,7.91
2023-04-15T04:36:47.932Z,7.90
2023-04-15T04:39:16.426Z,7.79
2023-04-15T04:41:44.683Z,7.74
2023-04-15T04:44:13.018Z,7.83
2023-04-15T04:46:40.954Z,7.86
2023-04-15T04:49:08.697Z,7.96
2023-04-15T04:51:36.547Z,7.75
2023-04-15T04:54:04.621Z,7.72
2023-04-15T04:56:32.171Z,7.81
2023-04-15T04:58:59.885Z,7.62
2023-04-15T05:01:28.376Z,7.86
2023-04-15T05:03:56.251Z,7.69
2023-04-15T05:06:24.004Z,7.58
2023-04-15T05:08:52.211Z,7.69
2023-04-15T05:11:19.929Z,7.82
2023-04-15T05:13:47.557Z,7.82
2023-04-15T05:16:15.475Z,7.92
2023-04-15T05:18:43.319Z,7.87
2023-04-15T05:21:11.117Z,8.03
2023-04-15T05:23:39.321Z,7.94
2023-04-15T05:26:06.884Z,8.04
2023-04-15T05:28:34.565Z,8.20
2023-04-15T05:31:02.710Z,8.20
2023-04-15T05:33:30.508Z,8.06
2023-04-15T05:35:58.224Z,7.70
2023-04-15T05:38:26.284Z,7.81
2023-04-15T05:40:54.162Z,7.72
2023-04-15T05:43:21.735Z,7.81
2023-04-15T05:45:49.692Z,7.93
2023-04-15T05:48:17.696Z,7.76
2023-04-15T05:50:45.272Z,8.24
2023-04-15T05:53:13.135Z,8.43
2023-04-15T05:55:40.760Z,8.36
2023-04-15T05:58:08.479Z,8.56
2023-04-15T06:00:37.079Z,8.67
2023-04-15T06:03:05.176Z,8.44
2023-04-15T06:05:33.004Z,8.53
2023-04-15T06:08:00.684Z,8.59
2023-04-15T06:10:28.640Z,8.65
2023-04-15T06:12:56.364Z,8.86
2023-04-15T06:15:24.045Z,8.86
2023-04-15T06:17:52.141Z,8.81
2023-04-15T06:20:19.943Z,8.77
2023-04-15T06:22:50.346Z,8.34
2023-04-15T06:25:18.275Z,8.45
2023-04-15T06:27:46.474Z,8.57
2023-04-15T06:30:14.068Z,8.57
2023-04-15T06:32:42.029Z,8.20
2023-04-15T06:35:09.841Z,8.32
2023-04-15T06:37:37.478Z,8.44
2023-04-15T06:40:06.209Z,8.56
2023-04-15T06:42:36.092Z,8.55
2023-04-15T06:45:04.377Z,8.70
2023-04-15T06:47:32.421Z,8.39
2023-04-15T06:50:00.285Z,8.72
2023-04-15T06:52:27.973Z,8.68
2023-04-15T06:54:55.917Z,8.42
2023-04-15T06:57:23.637Z,8.59
2023-04-15T06:59:51.358Z,8.85
2023-04-15T07:02:19.593Z,9.30
2023-04-15T07:04:47.319Z,9.00
2023-04-15T07:07:14.904Z,9.45
2023-04-15T07:09:42.993Z,9.63
2023-04-15T07:12:11.149Z,9.59
2023-04-15T07:14:39.008Z,9.93
2023-04-15T07:17:07.190Z,10.08
2023-04-15T07:19:35.013Z,10.25
2023-04-15T07:22:02.770Z,10.61
2023-04-15T07:24:30.636Z,10.28
2023-04-15T07:26:59.527Z,10.32
2023-04-15T07:29:28.726Z,10.49
2023-04-15T07:31:56.578Z,10.45
2023-04-15T07:34:24.296Z,10.45
2023-04-15T07:36:52.226Z,10.24
2023-04-15T07:39:20.206Z,10.15
2023-04-15T07:41:48.442Z,10.07
2023-04-15T07:44:16.030Z,9.96
2023-04-15T07:46:44.028Z,9.73
2023-04-15T07:49:11.743Z,10.30
2023-04-15T07:51:39.404Z,10.64
2023-04-15T07:54:07.552Z,9.80
2023-04-15T07:56:35.105Z,10.12
2023-04-15T07:59:03.151Z,9.95
2023-04-15T08:01:31.255Z,9.75
2023-04-15T08:03:59.880Z,9.90
2023-04-15T08:06:27.542Z,9.67
2023-04-15T08:08:55.306Z,10.05
2023-04-15T08:11:23.342Z,10.29
2023-04-15T08:13:52.105Z,10.47
2023-04-15T08:16:21.854Z,10.63
2023-04-15T08:18:50.864Z,10.86
2023-04-15T08:21:19.552Z,10.96
2023-04-15T08:23:49.305Z,11.25
2023-04-15T08:26:18.202Z,11.66
2023-04-15T08:28:46.432Z,11.41
2023-04-15T08:31:15.205Z,11.35
2023-04-15T08:33:43.369Z,11.62
2023-04-15T08:36:11.045Z,11.51
2023-04-15T08:38:38.787Z,11.40
2023-04-15T08:41:12.655Z,11.85
2023-04-15T08:43:49.455Z,11.99
2023-04-15T08:46:17.668Z,11.69
2023-04-15T08:48:47.838Z,11.58
2023-04-15T08:51:17.770Z,11.48
2023-04-15T08:53:46.292Z,11.70
2023-04-15T08:56:15.447Z,11.36
2023-04-15T08:58:46.703Z,11.37
2023-04-15T09:01:14.627Z,11.33
2023-04-15T09:03:42.801Z,11.37
2023-04-15T09:06:11.567Z,11.11
2023-04-15T09:08:39.753Z,11.52
2023-04-15T09:11:07.373Z,11.29
2023-04-15T09:13:35.179Z,11.21
2023-04-15T09:16:03.635Z,11.31
2023-04-15T09:18:33.735Z,11.05
2023-04-15T09:21:09.173Z,11.23
2023-04-15T09:23:38.134Z,11.25
2023-04-15T09:26:06.621Z,10.94
2023-04-15T09:28:42.322Z,11.44
2023-04-15T09:31:10.832Z,11.61
2023-04-15T09:33:55.218Z,11.85
2023-04-15T09:36:23.104Z,12.76
2023-04-15T09:38:58.166Z,12.54
2023-04-15T09:41:27.175Z,12.51
2023-04-15T09:43:55.799Z,12.12
2023-04-15T09:46:49.298Z,12.30
2023-04-15T09:49:17.365Z,11.93
2023-04-15T09:51:54.101Z,12.04
2023-04-15T09:54:34.582Z,12.06
2023-04-15T09:57:09.014Z,12.07
2023-04-15T09:59:37.190Z,12.20
2023-04-15T10:02:05.736Z,12.52
2023-04-15T10:04:35.992Z,12.03
2023-04-15T10:07:05.244Z,11.93
2023-04-15T10:09:33.354Z,11.69
2023-04-15T10:12:01.812Z,11.63
2023-04-15T10:14:34.433Z,11.68
2023-04-15T10:17:04.635Z,11.55
2023-04-15T10:19:34.156Z,11.92
2023-04-15T10:22:02.510Z,12.10
2023-04-15T10:24:33.763Z,12.26
2023-04-15T10:27:03.794Z,12.24
2023-04-15T10:29:31.937Z,12.24
2023-04-15T10:31:59.963Z,12.02
2023-04-15T10:34:28.068Z,12.01
2023-04-15T10:36:56.985Z,12.42
2023-04-15T10:39:50.978Z,12.51
2023-04-15T10:42:19.757Z,11.74
2023-04-15T10:44:51.545Z,11.36
2023-04-15T10:47:20.776Z,11.40
2023-04-15T10:49:59.225Z,11.16
2023-04-15T10:52:29.249Z,10.94
2023-04-15T10:55:20.279Z,11.11
2023-04-15T10:57:51.107Z,11.45
2023-04-15T11:00:19.813Z,11.58
2023-04-15T11:02:48.473Z,11.58
2023-04-15T11:05:17.615Z,11.29
2023-04-15T11:07:52.141Z,11.78
2023-04-15T11:10:26.116Z,12.15
2023-04-15T11:12:57.471Z,11.60
2023-04-15T11:15:37.513Z,11.55
2023-04-15T11:18:26.951Z,11.42
2023-04-15T11:20:57.258Z,11.35
2023-04-15T11:23:33.103Z,11.48
2023-04-15T11:26:09.981Z,11.32
2023-04-15T11:28:39.797Z,11.49
2023-04-15T11:31:11.661Z,11.49
2023-04-15T11:33:46.284Z,11.22
2023-04-15T11:36:14.383Z,11.64
2023-04-15T11:38:47.029Z,11.93
2023-04-15T11:41:15.551Z,12.40
2023-04-15T11:43:43.952Z,12.31
2023-04-15T11:46:11.597Z,11.93
2023-04-15T11:48:43.248Z,12.59
2023-04-15T11:51:11.729Z,12.24
2023-04-15T11:53:48.098Z,12.88
2023-04-15T11:56:27.758Z,13.41
2023-04-15T11:58:57.751Z,13.43
2023-04-15T12:01:35.768Z,12.94
2023-04-15T12:04:15.074Z,12.70
2023-04-15T12:06:43.394Z,12.70
2023-04-15T12:09:11.451Z,12.76
2023-04-15T12:11:57.953Z,11.81
2023-04-15T12:14:30.349Z,12.40
2023-04-15T12:16:59.544Z,12.27
2023-04-15T12:19:28.767Z,12.55
2023-04-15T12:22:04.278Z,12.56
2023-04-15T12:24:36.850Z,12.25
2023-04-15T12:27:09.462Z,12.24
2023-04-15T12:29:39.593Z,12.63
2023-04-15T12:32:10.782Z,12.47
2023-04-15T12:34:40.768Z,12.60
2023-04-15T12:37:10.063Z,12.45
2023-04-15T12:39:39.842Z,12.62
2023-04-15T12:42:08.246Z,12.44
2023-04-15T12:44:37.030Z,12.21
2023-04-15T12:47:05.337Z,11.79
2023-04-15T12:49:33.211Z,11.80
2023-04-15T12:52:02.207Z,11.48
2023-04-15T12:54:30.870Z,11.37
2023-04-15T12:56:59.260Z,11.22
2023-04-15T12:59:27.012Z,11.19
2023-04-15T13:01:55.182Z,11.44
2023-04-15T13:04:23.086Z,11.20
2023-04-15T13:06:50.846Z,10.82
2023-04-15T13:09:19.027Z,11.30
2023-04-15T13:11:46.812Z,11.58
2023-04-15T13:14:14.435Z,11.29
2023-04-15T13:16:42.342Z,11.37
2023-04-15T13:19:10.036Z,11.29
2023-04-15T13:21:37.804Z,11.66
2023-04-15T13:24:06.040Z,11.90
2023-04-15T13:26:34.585Z,12.12
2023-04-15T13:29:02.584Z,11.83
2023-04-15T13:31:30.879Z,11.96
2023-04-15T13:33:58.539Z,12.66
2023-04-15T13:36:27.239Z,12.42
2023-04-15T13:38:55.246Z,12.43
2023-04-15T13:41:23.276Z,12.36
2023-04-15T13:43:51.093Z,12.14
2023-04-15T13:46:19.175Z,11.73
2023-04-15T13:48:47.512Z,11.98
2023-04-15T13:51:15.469Z,11.78
2023-04-15T13:53:43.505Z,11.84
2023-04-15T13:56:11.696Z,11.85
2023-04-15T13:58:40.582Z,11.98
2023-04-15T14:01:08.980Z,12.15
2023-04-15T14:03:37.723Z,11.93
2023-04-15T14:06:06.727Z,11.72
2023-04-15T14:08:35.004Z,12.11
2023-04-15T14:11:03.383Z,12.13
2023-04-15T14:13:31.252Z,11.83
2023-04-15T14:15:59.302Z,12.21
2023-04-15T14:18:27.555Z,11.90
2023-04-15T14:20:55.635Z,11.96
2023-04-15T14:23:23.748Z,11.89
2023-04-15T14:25:51.809Z,11.82
2023-04-15T14:28:19.741Z,11.87
2023-04-15T14:30:49.271Z,11.97
2023-04-15T14:33:17.302Z,12.05
2023-04-15T14:35:44.912Z,11.55
2023-04-15T14:38:12.589Z,11.88
2023-04-15T14:40:41.631Z,11.79
2023-04-15T14:43:09.347Z,11.85
2023-04-15T14:45:38.740Z,11.71
2023-04-15T14:48:09.675Z,11.95
2023-04-15T14:50:37.423Z,12.18
2023-04-15T14:53:05.467Z,11.90
2023-04-15T14:55:33.790Z,11.75
2023-04-15T14:58:01.739Z,11.73
2023-04-15T15:00:29.511Z,11.63
2023-04-15T15:02:57.628Z,12.09
2023-04-15T15:05:25.504Z,12.25
2023-04-15T15:07:53.343Z,12.16
2023-04-15T15:10:46.574Z,12.08
2023-04-15T15:13:10.433Z,12.35
2023-04-15T15:15:39.060Z,12.10
2023-04-15T15:18:07.285Z,11.69
2023-04-15T15:20:35.077Z,11.68
2023-04-15T15:23:03.074Z,11.53
2023-04-15T15:25:30.718Z,11.96
2023-04-15T15:27:58.979Z,11.60
2023-04-15T15:30:27.302Z,11.82
2023-04-15T15:32:55.788Z,11.80
2023-04-15T15:35:25.398Z,11.90
2023-04-15T15:37:53.510Z,11.55
2023-04-15T15:40:21.144Z,11.56
2023-04-15T15:42:48.969Z,11.28
2023-04-15T15:45:17.344Z,11.59
2023-04-15T15:47:44.989Z,11.50
2023-04-15T15:50:13.765Z,11.43
2023-04-15T15:52:41.895Z,11.37
2023-04-15T15:55:09.802Z,11.29
2023-04-15T15:57:37.619Z,11.62
2023-04-15T16:03:04.244Z,11.69
2023-04-15T16:05:25.301Z,11.32
2023-04-15T16:07:53.189Z,11.62
2023-04-15T16:10:20.855Z,11.55
2023-04-15T16:12:49.021Z,11.34
2023-04-15T16:15:16.617Z,11.26
2023-04-15T16:17:44.427Z,11.34
2023-04-15T16:20:12.343Z,11.61
2023-04-15T16:22:40.084Z,11.69
2023-04-15T16:25:08.178Z,11.38
2023-04-15T16:27:40.821Z,11.50
2023-04-15T16:30:17.957Z,11.47
2023-04-15T16:32:46.080Z,11.33
2023-04-15T16:35:13.644Z,11.37
2023-04-15T16:37:41.482Z,11.19
2023-04-15T16:40:10.176Z,11.11
2023-04-15T16:42:38.184Z,10.82
2023-04-15T16:45:06.345Z,11.11
2023-04-15T16:47:36.714Z,11.05
2023-04-15T16:50:04.764Z,11.33
2023-04-15T16:52:32.839Z,11.17
2023-04-15T16:55:01.023Z,11.05
2023-04-15T16:57:36.553Z,11.19
2023-04-15T17:00:16.951Z,11.14
2023-04-15T17:02:44.821Z,10.71
2023-04-15T17:05:12.617Z,10.96
2023-04-15T17:07:40.565Z,10.88
2023-04-15T17:10:08.706Z,10.77
2023-04-15T17:12:36.580Z,10.86
2023-04-15T17:15:05.064Z,10.71
2023-04-15T17:17:32.905Z,10.83
2023-04-15T17:20:00.592Z,10.89
2023-04-15T17:22:28.587Z,10.60
2023-04-15T17:24:56.173Z,10.82
2023-04-15T17:27:24.176Z,10.99
2023-04-15T17:29:53.809Z,11.06
2023-04-15T17:32:21.576Z,11.11
2023-04-15T17:34:51.403Z,11.14
2023-04-15T17:37:19.740Z,11.14
2023-04-15T17:39:47.722Z,11.08
2023-04-15T17:42:17.914Z,11.20
2023-04-15T17:44:46.025Z,11.06
2023-04-15T17:47:14.255Z,11.06
2023-04-15T17:49:42.238Z,11.00
2023-04-15T17:52:10.455Z,10.95
2023-04-15T17:54:38.425Z,10.87
2023-04-15T17:57:06.180Z,10.78
2023-04-15T17:59:34.570Z,10.79
2023-04-15T18:02:02.660Z,10.70
2023-04-15T18:04:31.250Z,10.70
2023-04-15T18:07:00.402Z,10.63
2023-04-15T18:09:28.148Z,10.70
2023-04-15T18:11:56.414Z,10.72
2023-04-15T18:14:34.177Z,10.66
2023-04-15T18:17:03.255Z,10.66
2023-04-15T18:19:31.397Z,10.53
2023-04-15T18:21:59.272Z,10.50
2023-04-15T18:26:56.101Z,10.43
2023-04-15T18:29:24.039Z,10.49
2023-04-15T18:31:53.121Z,10.41
2023-04-15T18:34:21.200Z,10.40
2023-04-15T18:36:48.908Z,10.35
2023-04-15T18:39:17.364Z,10.44
2023-04-15T18:41:45.859Z,10.39
2023-04-15T18:44:13.795Z,10.35
2023-04-15T18:46:41.826Z,10.31
2023-04-15T18:49:11.429Z,10.21
2023-04-15T18:51:39.742Z,10.24
2023-04-15T18:54:08.027Z,10.15
2023-04-15T18:56:36.217Z,10.12
2023-04-15T18:59:26.873Z,10.13
2023-04-15T19:01:53.327Z,10.02
2023-04-15T19:04:21.426Z,10.12
2023-04-15T19:06:49.548Z,10.17
2023-04-15T19:09:18.805Z,10.14
2023-04-15T19:11:46.717Z,10.19
2023-04-15T19:14:14.846Z,10.11
2023-04-15T19:16:43.658Z,10.09
2023-04-15T19:19:11.696Z,10.20
2023-04-15T19:21:40.377Z,10.29
2023-04-15T19:24:10.186Z,10.19
2023-04-15T19:26:38.211Z,10.15
2023-04-15T19:29:06.493Z,10.13
2023-04-15T19:31:35.304Z,10.07
2023-04-15T19:34:03.428Z,10.20
2023-04-15T19:36:32.428Z,10.12
2023-04-15T19:39:00.962Z,10.03
2023-04-15T19:41:28.922Z,10.13
2023-04-15T19:43:56.607Z,10.13
2023-04-15T19:46:25.000Z,10.25
2023-04-15T19:48:54.098Z,10.22
2023-04-15T19:51:22.323Z,10.15
2023-04-15T19:53:50.800Z,10.19
2023-04-15T19:56:18.700Z,10.09
2023-04-15T19:58:46.864Z,10.10
2023-04-15T20:01:15.324Z,10.12
2023-04-15T20:03:43.930Z,10.06
2023-04-15T20:06:12.455Z,10.03
2023-04-15T20:08:40.228Z,10.08
2023-04-15T20:11:09.873Z,10.09
2023-04-15T20:13:38.975Z,10.06
2023-04-15T20:16:06.591Z,10.07
2023-04-15T20:18:34.988Z,9.90
2023-04-15T20:21:02.966Z,9.93
2023-04-15T20:23:30.883Z,9.90
2023-04-15T20:25:58.921Z,9.92
2023-04-15T20:28:26.500Z,9.89
2023-04-15T20:30:54.469Z,9.86
2023-04-15T20:33:22.593Z,9.87
2023-04-15T20:35:50.257Z,9.91
2023-04-15T20:38:18.233Z,9.87
2023-04-15T20:40:46.434Z,9.96
2023-04-15T20:43:14.294Z,9.77
2023-04-15T20:45:42.239Z,9.76
2023-04-15T20:48:10.245Z,9.73
2023-04-15T20:50:38.787Z,9.70
2023-04-15T20:53:06.633Z,9.73
2023-04-15T20:55:34.693Z,9.75
2023-04-15T20:58:03.752Z,9.80
2023-04-15T21:00:31.841Z,9.76
2023-04-15T21:03:00.329Z,9.69
2023-04-15T21:05:29.488Z,9.62
2023-04-15T21:07:57.090Z,9.65
2023-04-15T21:10:26.197Z,9.62
2023-04-15T21:12:54.499Z,9.87
2023-04-15T21:15:22.244Z,9.47
2023-04-15T21:17:50.380Z,9.43
2023-04-15T21:20:18.164Z,9.48
2023-04-15T21:22:45.725Z,9.47
2023-04-15T21:25:13.683Z,9.46
2023-04-15T21:27:41.251Z,9.40
2023-04-15T21:30:09.246Z,9.36
2023-04-15T21:32:37.259Z,9.36
2023-04-15T21:35:05.312Z,9.32
2023-04-15T21:37:33.039Z,9.40
2023-04-15T21:40:01.092Z,9.28
2023-04-15T21:42:29.571Z,9.43
2023-04-15T21:44:57.653Z,9.45
2023-04-15T21:47:26.429Z,9.22
2023-04-15T21:49:54.499Z,8.90
2023-04-15T21:52:22.107Z,9.07
2023-04-15T21:54:50.606Z,8.96
2023-04-15T21:57:18.201Z,8.88
2023-04-15T21:59:45.875Z,8.88
2023-04-15T22:02:13.928Z,8.89
2023-04-15T22:04:41.972Z,8.91
2023-04-15T22:07:09.600Z,8.90
2023-04-15T22:09:37.304Z,8.93
2023-04-15T22:12:05.437Z,8.98
2023-04-15T22:14:33.102Z,8.88
2023-04-15T22:17:00.800Z,8.76
2023-04-15T22:19:28.694Z,8.74
2023-04-15T22:21:56.264Z,8.76
2023-04-15T22:24:38.537Z,8.72
2023-04-15T22:27:08.759Z,8.71
2023-04-15T22:29:36.380Z,8.69
2023-04-15T22:32:04.123Z,8.73
2023-04-15T22:34:32.058Z,8.75
2023-04-15T22:36:59.707Z,8.80
2023-04-15T22:39:27.302Z,8.69
2023-04-15T22:41:55.578Z,8.66
2023-04-15T22:44:23.280Z,8.64
2023-04-15T22:46:51.277Z,8.66
2023-04-15T22:49:19.233Z,8.67
2023-04-15T22:51:46.961Z,8.69
2023-04-15T22:54:15.185Z,8.81
2023-04-15T22:56:43.047Z,8.67
2023-04-15T22:59:11.064Z,8.66
2023-04-15T23:01:39.014Z,8.57
2023-04-15T23:04:25.877Z,8.73
2023-04-15T23:06:54.768Z,8.83
2023-04-15T23:09:22.875Z,8.84
2023-04-15T23:11:50.618Z,8.86
2023-04-15T23:14:18.235Z,8.80
2023-04-15T23:16:46.229Z,8.80
2023-04-15T23:19:13.926Z,8.88
2023-04-15T23:21:41.707Z,8.92
2023-04-15T23:24:09.650Z,8.89
2023-04-15T23:26:37.243Z,8.85
2023-04-15T23:29:05.088Z,8.82
2023-04-15T23:31:33.132Z,8.85
2023-04-15T23:34:02.115Z,8.85
2023-04-15T23:36:29.910Z,8.89
2023-04-15T23:38:58.340Z,8.84
2023-04-15T23:41:25.947Z,8.87
2023-04-15T23:43:54.114Z,8.78
2023-04-15T23:46:22.107Z,8.74
2023-04-15T23:48:49.744Z,8.82
2023-04-15T23:51:17.349Z,8.73
2023-04-15T23:53:45.370Z,8.77
2023-04-15T23:56:13.399Z,8.78
2023-04-15T23:58:41.387Z,8.78
